createdAt,value
2022-11-18T00:03:01.786Z,88.06
2022-11-18T00:06:14.238Z,87.81
2022-11-18T00:09:23.997Z,87.74
2022-11-18T00:12:49.777Z,87.78
2022-11-18T00:16:02.743Z,86.75
2022-11-18T00:19:10.967Z,87.40
2022-11-18T00:22:19.295Z,87.77
2022-11-18T00:25:29.371Z,88.14
2022-11-18T00:28:38.017Z,87.90
2022-11-18T00:31:50.283Z,88.10
2022-11-18T00:34:58.775Z,87.54
2022-11-18T00:38:07.584Z,88.34
2022-11-18T00:41:17.646Z,87.62
2022-11-18T00:44:25.052Z,87.11
2022-11-18T00:47:33.298Z,87.41
2022-11-18T00:50:41.496Z,87.47
2022-11-18T00:53:49.632Z,88.27
2022-11-18T00:56:59.316Z,87.72
2022-11-18T01:00:10.249Z,87.16
2022-11-18T01:03:19.545Z,87.54
2022-11-18T01:06:27.942Z,86.92
2022-11-18T01:09:36.259Z,86.82
2022-11-18T01:13:03.418Z,87.71
2022-11-18T01:16:11.680Z,87.55
2022-11-18T01:19:20.892Z,87.73
2022-11-18T01:22:29.311Z,86.39
2022-11-18T01:25:38.417Z,85.76
2022-11-18T01:28:47.966Z,87.14
2022-11-18T01:32:22.716Z,86.64
2022-11-18T01:35:25.256Z,87.42
2022-11-18T01:38:33.456Z,87.06
2022-11-18T01:41:41.859Z,87.47
2022-11-18T01:45:16.701Z,86.93
2022-11-18T01:48:29.948Z,86.71
2022-11-18T01:51:46.846Z,86.87
2022-11-18T01:55:00.090Z,86.11
2022-11-18T01:58:13.988Z,86.38
2022-11-18T02:01:24.106Z,86.32
2022-11-18T02:04:32.545Z,86.03
2022-11-18T02:07:44.520Z,86.26
2022-11-18T02:10:52.807Z,86.25
2022-11-18T02:14:05.303Z,86.42
2022-11-18T02:17:29.295Z,86.39
2022-11-18T02:20:43.074Z,85.08
2022-11-18T02:24:19.833Z,86.03
2022-11-18T02:28:10.071Z,85.59
2022-11-18T02:31:28.972Z,86.72
2022-11-18T02:34:49.503Z,86.64
2022-11-18T02:38:04.441Z,86.47
2022-11-18T02:41:19.157Z,86.79
2022-11-18T02:44:30.539Z,86.50
2022-11-18T02:47:44.102Z,85.85
2022-11-18T02:50:55.280Z,85.50
2022-11-18T02:54:09.480Z,86.11
2022-11-18T02:57:20.563Z,86.00
2022-11-18T03:00:28.837Z,86.02
2022-11-18T03:03:38.432Z,85.94
2022-11-18T03:06:57.793Z,85.88
2022-11-18T03:10:07.328Z,86.19
2022-11-18T03:13:27.827Z,86.48
2022-11-18T03:16:44.078Z,86.35
2022-11-18T03:20:11.829Z,86.36
2022-11-18T03:23:31.258Z,86.01
2022-11-18T03:26:47.212Z,85.96
2022-11-18T03:30:03.449Z,85.94
2022-11-18T03:33:18.609Z,86.03
2022-11-18T03:36:34.853Z,86.00
2022-11-18T03:39:49.494Z,86.79
2022-11-18T03:43:05.271Z,86.53
2022-11-18T03:46:19.944Z,86.53
2022-11-18T03:49:33.447Z,86.18
2022-11-18T03:52:44.940Z,86.05
2022-11-18T03:56:00.360Z,86.17
2022-11-18T03:59:17.074Z,86.57
2022-11-18T04:02:30.542Z,86.25
2022-11-18T04:05:42.571Z,86.22
2022-11-18T04:08:59.259Z,86.19
2022-11-18T04:12:14.096Z,86.91
2022-11-18T04:15:22.479Z,86.69
2022-11-18T04:18:30.845Z,86.65
2022-11-18T04:21:39.126Z,86.68
2022-11-18T04:24:48.910Z,86.22
2022-11-18T04:27:57.570Z,87.55
2022-11-18T04:31:06.298Z,87.12
2022-11-18T04:34:14.562Z,87.35
2022-11-18T04:37:23.161Z,87.92
2022-11-18T04:40:32.750Z,87.30
2022-11-18T04:43:41.075Z,87.21
2022-11-18T04:46:49.426Z,87.85
2022-11-18T04:49:57.859Z,88.20
2022-11-18T04:53:06.069Z,87.97
2022-11-18T04:56:15.672Z,88.21
2022-11-18T04:59:28.193Z,87.38
2022-11-18T05:02:36.640Z,88.15
2022-11-18T05:05:44.835Z,88.60
2022-11-18T05:08:53.145Z,88.22
2022-11-18T05:12:21.332Z,87.45
2022-11-18T05:15:29.629Z,88.32
2022-11-18T05:18:39.535Z,87.35
2022-11-18T05:21:48.108Z,88.28
2022-11-18T05:24:56.445Z,86.87
2022-11-18T05:28:06.425Z,87.89
2022-11-18T05:31:18.091Z,87.23
2022-11-18T05:34:27.400Z,87.57
2022-11-18T05:37:35.602Z,85.98
2022-11-18T05:40:44.476Z,86.43
2022-11-18T05:43:53.298Z,86.56
2022-11-18T05:47:01.661Z,86.65
2022-11-18T05:50:10.848Z,86.06
2022-11-18T05:53:21.545Z,85.49
2022-11-18T05:56:34.434Z,85.57
2022-11-18T05:59:44.197Z,85.68
2022-11-18T06:02:55.427Z,85.01
2022-11-18T06:06:09.359Z,85.77
2022-11-18T06:09:26.221Z,84.21
2022-11-18T06:12:48.279Z,84.56
2022-11-18T06:15:59.860Z,84.46
2022-11-18T06:19:09.568Z,84.81
2022-11-18T06:22:18.035Z,85.02
2022-11-18T06:25:27.378Z,85.92
2022-11-18T06:28:36.354Z,85.02
2022-11-18T06:31:47.547Z,84.61
2022-11-18T06:34:56.079Z,84.48
2022-11-18T06:38:04.504Z,85.04
2022-11-18T06:41:12.859Z,84.36
2022-11-18T06:44:21.144Z,84.33
2022-11-18T06:47:31.593Z,85.02
2022-11-18T06:50:39.870Z,84.54
2022-11-18T06:53:50.073Z,84.49
2022-11-18T06:56:58.862Z,84.37
2022-11-18T07:00:09.466Z,83.82
2022-11-18T07:03:19.347Z,83.30
2022-11-18T07:06:30.040Z,83.68
2022-11-18T07:09:38.903Z,83.37
2022-11-18T07:12:47.227Z,83.66
2022-11-18T07:15:55.594Z,83.90
2022-11-18T07:19:10.965Z,83.87
2022-11-18T07:22:19.288Z,84.46
2022-11-18T07:25:27.522Z,83.36
2022-11-18T07:28:36.351Z,83.31
2022-11-18T07:31:45.487Z,83.32
2022-11-18T07:34:55.168Z,83.42
2022-11-18T07:38:03.443Z,82.74
2022-11-18T07:41:14.063Z,83.08
2022-11-18T07:44:22.267Z,82.80
2022-11-18T07:47:30.561Z,82.63
2022-11-18T07:50:45.853Z,82.92
2022-11-18T07:53:57.114Z,83.56
2022-11-18T07:57:05.678Z,83.05
2022-11-18T08:00:15.890Z,83.17
2022-11-18T08:03:28.024Z,82.76
2022-11-18T08:06:38.627Z,83.10
2022-11-18T08:09:46.796Z,82.79
2022-11-18T08:12:55.007Z,82.83
2022-11-18T08:16:04.499Z,83.50
2022-11-18T08:19:12.721Z,83.06
2022-11-18T08:22:22.444Z,83.60
2022-11-18T08:25:30.713Z,83.51
2022-11-18T08:28:39.174Z,84.67
2022-11-18T08:31:47.544Z,85.43
2022-11-18T08:34:55.748Z,85.21
2022-11-18T08:38:05.348Z,85.06
2022-11-18T08:41:15.594Z,85.06
2022-11-18T08:44:23.824Z,85.69
2022-11-18T08:47:32.093Z,85.68
2022-11-18T08:50:40.423Z,84.92
2022-11-18T08:53:50.109Z,86.17
2022-11-18T08:56:58.350Z,85.81
2022-11-18T09:00:08.292Z,86.21
2022-11-18T09:03:16.699Z,86.11
2022-11-18T09:06:25.418Z,86.16
2022-11-18T09:09:36.889Z,86.13
2022-11-18T09:12:45.109Z,87.13
2022-11-18T09:15:53.348Z,87.26
2022-11-18T09:19:24.417Z,87.34
2022-11-18T09:22:31.194Z,87.09
2022-11-18T09:25:40.892Z,86.84
2022-11-18T09:28:49.389Z,86.64
2022-11-18T09:31:57.575Z,86.52
2022-11-18T09:35:06.672Z,86.77
2022-11-18T09:38:19.739Z,87.53
2022-11-18T09:41:45.970Z,87.19
2022-11-18T09:45:25.541Z,86.38
2022-11-18T09:48:55.441Z,86.07
2022-11-18T09:52:07.343Z,85.40
2022-11-18T09:55:18.808Z,85.76
2022-11-18T09:58:37.028Z,86.28
2022-11-18T10:01:46.537Z,87.37
2022-11-18T10:04:57.368Z,87.27
2022-11-18T10:08:23.771Z,87.24
2022-11-18T10:11:45.177Z,86.85
2022-11-18T10:15:24.056Z,87.57
2022-11-18T10:22:24.837Z,88.18
2022-11-18T10:25:33.242Z,86.94
2022-11-18T10:28:41.521Z,86.85
2022-11-18T10:32:04.777Z,86.75
2022-11-18T10:35:29.300Z,86.44
2022-11-18T10:38:39.436Z,86.86
2022-11-18T10:41:52.707Z,88.50
2022-11-18T10:45:25.522Z,88.23
2022-11-18T10:48:35.136Z,87.88
2022-11-18T10:51:46.668Z,88.38
2022-11-18T10:55:22.008Z,87.31
2022-11-18T10:58:33.362Z,87.56
2022-11-18T11:01:41.733Z,88.43
2022-11-18T11:04:53.182Z,88.49
2022-11-18T11:08:35.172Z,87.42
2022-11-18T11:11:40.086Z,86.32
2022-11-18T11:14:54.522Z,86.18
2022-11-18T11:18:29.151Z,86.08
2022-11-18T11:21:39.093Z,86.03
2022-11-18T11:24:47.915Z,87.21
2022-11-18T11:28:17.318Z,88.22
2022-11-18T11:31:37.460Z,88.74
2022-11-18T11:34:58.484Z,87.85
2022-11-18T11:38:20.255Z,86.52
2022-11-18T11:41:40.849Z,87.64
2022-11-18T11:45:12.280Z,86.82
2022-11-18T11:48:40.015Z,87.26
2022-11-18T11:51:55.839Z,86.63
2022-11-18T11:55:23.705Z,86.22
2022-11-18T11:59:03.516Z,85.72
2022-11-18T12:02:39.784Z,85.62
2022-11-18T12:05:48.070Z,86.30
2022-11-18T12:09:09.134Z,87.57
2022-11-18T12:12:36.247Z,88.18
2022-11-18T12:16:01.327Z,89.00
2022-11-18T12:19:15.213Z,88.61
2022-11-18T12:22:23.768Z,88.62
2022-11-18T12:26:01.027Z,87.95
2022-11-18T12:29:26.860Z,87.97
2022-11-18T12:32:42.596Z,87.54
2022-11-18T12:35:54.182Z,87.09
2022-11-18T12:39:59.765Z,86.47
2022-11-18T12:43:50.753Z,84.94
2022-11-18T12:47:02.170Z,84.98
2022-11-18T12:50:14.405Z,84.67
2022-11-18T12:53:41.465Z,85.59
2022-11-18T12:56:51.663Z,85.90
2022-11-18T13:00:20.011Z,87.26
2022-11-18T13:03:30.684Z,87.66
2022-11-18T13:06:40.835Z,87.75
2022-11-18T13:09:50.081Z,86.14
2022-11-18T13:12:58.840Z,86.89
2022-11-18T13:16:38.457Z,87.44
2022-11-18T13:20:05.986Z,87.09
2022-11-18T13:23:46.977Z,87.71
2022-11-18T13:26:58.035Z,87.58
2022-11-18T13:30:12.851Z,87.66
2022-11-18T13:33:21.485Z,87.38
2022-11-18T13:36:33.698Z,87.84
2022-11-18T13:39:46.579Z,87.93
2022-11-18T13:42:55.354Z,87.85
2022-11-18T13:46:09.392Z,87.75
2022-11-18T13:49:25.061Z,87.37
2022-11-18T13:52:41.119Z,87.63
2022-11-18T13:55:56.324Z,87.17
2022-11-18T13:59:20.907Z,87.58
2022-11-18T14:02:29.596Z,88.14
2022-11-18T14:05:37.924Z,87.60
2022-11-18T14:08:47.740Z,86.96
2022-11-18T14:12:03.223Z,87.99
2022-11-18T14:15:22.539Z,87.79
2022-11-18T14:18:34.601Z,87.64
2022-11-18T14:21:43.305Z,87.05
2022-11-18T14:25:02.426Z,87.41
2022-11-18T14:28:22.800Z,87.33
2022-11-18T14:31:33.678Z,86.78
2022-11-18T14:34:42.179Z,87.13
2022-11-18T14:37:56.576Z,86.90
2022-11-18T14:41:43.581Z,86.79
2022-11-18T14:44:53.002Z,87.33
2022-11-18T14:48:01.868Z,87.19
2022-11-18T14:51:14.952Z,86.47
2022-11-18T14:54:27.463Z,87.19
2022-11-18T14:57:39.440Z,86.88
2022-11-18T15:00:50.909Z,87.46
2022-11-18T15:03:59.583Z,87.50
2022-11-18T15:07:08.191Z,88.16
2022-11-18T15:10:18.383Z,88.70
2022-11-18T15:13:28.240Z,87.93
2022-11-18T15:16:39.180Z,88.08
2022-11-18T15:19:47.607Z,84.59
2022-11-18T15:22:56.300Z,86.44
2022-11-18T15:26:16.729Z,87.63
2022-11-18T15:29:27.081Z,87.39
2022-11-18T15:32:35.552Z,88.14
2022-11-18T15:35:44.076Z,87.73
2022-11-18T15:38:55.529Z,87.38
2022-11-18T15:42:04.165Z,87.81
2022-11-18T15:45:13.881Z,87.13
2022-11-18T15:48:22.357Z,86.52
2022-11-18T15:51:31.645Z,87.01
2022-11-18T15:54:40.271Z,87.17
2022-11-18T15:57:48.568Z,87.19
2022-11-18T16:00:58.303Z,87.42
2022-11-18T16:04:09.942Z,86.87
2022-11-18T16:07:18.252Z,87.45
2022-11-18T16:10:44.671Z,86.96
2022-11-18T16:13:53.051Z,87.65
2022-11-18T16:17:02.756Z,88.25
2022-11-18T16:20:12.214Z,88.49
2022-11-18T16:23:20.728Z,88.21
2022-11-18T16:26:31.299Z,88.26
2022-11-18T16:29:39.652Z,88.15
2022-11-18T16:32:53.083Z,88.45
2022-11-18T16:36:01.605Z,87.89
2022-11-18T16:39:12.483Z,87.60
2022-11-18T16:42:20.785Z,87.83
2022-11-18T16:45:29.571Z,88.21
2022-11-18T16:48:40.233Z,87.85
2022-11-18T16:51:51.767Z,87.87
2022-11-18T16:55:00.026Z,88.38
2022-11-18T16:58:09.299Z,87.58
2022-11-18T17:01:23.305Z,87.67
2022-11-18T17:04:38.752Z,87.19
2022-11-18T17:07:47.124Z,87.29
2022-11-18T17:10:55.537Z,87.38
2022-11-18T17:14:04.053Z,87.49
2022-11-18T17:17:12.664Z,87.01
2022-11-18T17:20:22.375Z,87.67
2022-11-18T17:23:32.853Z,86.93
2022-11-18T17:26:41.822Z,87.41
2022-11-18T17:29:53.301Z,87.14
2022-11-18T17:33:01.957Z,87.33
2022-11-18T17:36:15.168Z,86.93
2022-11-18T17:39:23.616Z,87.51
2022-11-18T17:42:32.284Z,87.37
2022-11-18T17:45:42.314Z,88.02
2022-11-18T17:48:56.951Z,88.06
2022-11-18T17:52:07.310Z,87.34
2022-11-18T17:55:15.943Z,87.55
2022-11-18T17:58:24.491Z,86.61
2022-11-18T18:01:33.149Z,87.02
2022-11-18T18:04:41.740Z,87.07
2022-11-18T18:07:52.732Z,87.34
2022-11-18T18:11:02.419Z,86.58
2022-11-18T18:14:14.291Z,86.85
2022-11-18T18:17:22.722Z,87.11
2022-11-18T18:20:30.967Z,87.16
2022-11-18T18:23:41.016Z,87.81
2022-11-18T18:26:49.483Z,87.38
2022-11-18T18:29:58.125Z,87.36
2022-11-18T18:33:06.655Z,87.69
2022-11-18T18:36:17.756Z,87.41
2022-11-18T18:39:28.146Z,88.11
2022-11-18T18:42:36.705Z,88.13
2022-11-18T18:46:02.675Z,87.88
2022-11-18T18:49:13.643Z,88.56
2022-11-18T18:52:21.959Z,88.11
2022-11-18T18:55:31.871Z,88.43
2022-11-18T18:58:40.375Z,88.33
2022-11-18T19:01:48.791Z,88.84
2022-11-18T19:04:57.148Z,89.51
2022-11-18T19:08:05.657Z,89.05
2022-11-18T19:11:34.771Z,88.90
2022-11-18T19:14:43.164Z,89.00
2022-11-18T19:17:51.442Z,89.74
2022-11-18T19:21:00.772Z,88.98
2022-11-18T19:24:23.158Z,89.52
2022-11-18T19:27:40.483Z,88.94
2022-11-18T19:30:48.813Z,89.42
2022-11-18T19:33:57.099Z,89.57
2022-11-18T19:37:05.413Z,88.88
2022-11-18T19:40:16.029Z,88.75
2022-11-18T19:43:27.168Z,89.37
2022-11-18T19:46:36.321Z,88.48
2022-11-18T19:49:44.636Z,88.99
2022-11-18T19:52:53.656Z,89.71
2022-11-18T19:56:05.342Z,89.76
2022-11-18T19:59:17.143Z,89.40
2022-11-18T20:02:25.742Z,89.16
2022-11-18T20:05:54.257Z,88.16
2022-11-18T20:09:03.011Z,88.39
2022-11-18T20:12:11.221Z,87.62
2022-11-18T20:15:20.733Z,87.44
2022-11-18T20:18:28.947Z,87.03
2022-11-18T20:21:39.033Z,87.88
2022-11-18T20:24:47.581Z,87.95
2022-11-18T20:27:56.100Z,88.11
2022-11-18T20:31:08.966Z,88.19
2022-11-18T20:34:18.462Z,88.67
2022-11-18T20:37:29.409Z,88.34
2022-11-18T20:40:37.809Z,89.00
2022-11-18T20:43:48.299Z,88.96
2022-11-18T20:46:59.268Z,88.33
2022-11-18T20:50:10.085Z,88.33
2022-11-18T20:53:19.096Z,88.47
2022-11-18T20:56:29.837Z,88.46
2022-11-18T20:59:38.275Z,88.67
2022-11-18T21:02:47.855Z,89.37
2022-11-18T21:05:57.230Z,88.41
2022-11-18T21:09:07.796Z,89.07
2022-11-18T21:12:16.092Z,88.81
2022-11-18T21:15:23.280Z,89.58
2022-11-18T21:18:32.884Z,88.71
2022-11-18T21:21:48.838Z,88.59
2022-11-18T21:24:57.263Z,88.10
2022-11-18T21:28:06.127Z,87.93
2022-11-18T21:31:17.227Z,87.23
2022-11-18T21:34:29.926Z,86.82
2022-11-18T21:37:38.175Z,87.73
2022-11-18T21:40:46.832Z,86.44
2022-11-18T21:44:05.522Z,86.70
2022-11-18T21:47:15.035Z,86.95
2022-11-18T21:50:24.747Z,86.92
2022-11-18T21:53:34.506Z,85.93
2022-11-18T21:56:43.418Z,86.24
2022-11-18T21:59:51.741Z,85.98
2022-11-18T22:03:00.208Z,86.04
2022-11-18T22:06:14.333Z,86.09
2022-11-18T22:09:22.512Z,86.16
2022-11-18T22:12:33.541Z,85.94
2022-11-18T22:15:43.200Z,85.13
2022-11-18T22:18:59.038Z,85.59
2022-11-18T22:22:11.463Z,85.75
2022-11-18T22:25:20.512Z,85.49
2022-11-18T22:28:29.056Z,85.44
2022-11-18T22:31:38.017Z,85.46
2022-11-18T22:34:51.607Z,84.95
2022-11-18T22:38:01.982Z,85.46
2022-11-18T22:41:34.559Z,85.84
2022-11-18T22:44:41.781Z,85.90
2022-11-18T22:47:50.614Z,86.41
2022-11-18T22:51:01.690Z,86.37
2022-11-18T22:57:40.202Z,86.66
2022-11-18T23:00:48.571Z,86.88
2022-11-18T23:03:59.819Z,87.13
2022-11-18T23:07:09.326Z,87.25
2022-11-18T23:10:20.185Z,86.74
2022-11-18T23:13:45.909Z,86.97
2022-11-18T23:16:54.144Z,86.59
2022-11-18T23:20:02.355Z,86.31
2022-11-18T23:23:10.570Z,86.58
2022-11-18T23:26:20.699Z,86.99
2022-11-18T23:29:29.617Z,86.33
2022-11-18T23:32:38.295Z,86.84
2022-11-18T23:35:54.036Z,86.54
2022-11-18T23:39:02.982Z,86.38
2022-11-18T23:42:12.953Z,86.16
2022-11-18T23:45:21.170Z,86.16
2022-11-18T23:48:34.560Z,85.88
2022-11-18T23:51:42.726Z,86.35
2022-11-18T23:54:52.017Z,86.59
2022-11-18T23:58:01.664Z,85.85
